Time;durP1;ratioP1;P1;durP2;ratioP2;P2;SDS_P1;SDS_P2;PMS_P1;PMS_P2;Temp;Humidity;BMP_temperature;BMP_pressure;BME280_temperature;BME280_humidity;BME280_pressure;Samples;Min_cycle;Max_cycle;Signal;HPM_P1;HPM_P2
2022/01/20 00:01:47;;;;;;;5.13;4.28;;;5.00;99.90;;;;;;5072191;28;20495;-46
2022/01/20 00:04:19;;;;;;;4.75;4.35;;;5.00;99.90;;;;;;5072390;28;20412;-46
2022/01/20 00:07:22;;;;;;;5.68;4.28;;;5.00;99.90;;;;;;5072386;28;20033;-47
2022/01/20 00:23:16;;;;;;;5.97;5.00;;;5.20;99.90;;;;;;5112599;28;20452;-45
2022/01/20 00:25:58;;;;;;;4.50;4.10;;;5.20;99.90;;;;;;5112722;28;20073;-45
2022/01/20 00:33:43;;;;;;;6.40;4.15;;;5.10;99.90;;;;;;5112562;28;20027;-46
2022/01/20 00:38:39;;;;;;;3.92;3.60;;;5.10;99.90;;;;;;5112417;28;20110;-44
2022/01/20 00:41:08;;;;;;;4.55;3.70;;;5.10;99.90;;;;;;5112150;28;20115;-45
2022/01/20 00:43:34;;;;;;;4.50;4.10;;;5.10;99.90;;;;;;5112338;28;20032;-45
2022/01/20 00:45:59;;;;;;;5.18;4.68;;;5.10;99.90;;;;;;5112332;28;20027;-47
2022/01/20 00:48:25;;;;;;;5.13;4.65;;;5.20;99.90;;;;;;5111931;27;20072;-46
2022/01/20 00:50:51;;;;;;;4.80;4.35;;;5.20;99.90;;;;;;5112045;28;20024;-45
2022/01/20 00:53:17;;;;;;;4.28;3.88;;;5.20;99.90;;;;;;5112205;28;20070;-44
2022/01/20 00:55:42;;;;;;;5.13;4.63;;;5.20;99.90;;;;;;5112140;28;20497;-43
2022/01/20 00:58:08;;;;;;;5.38;4.88;;;5.20;99.90;;;;;;5112173;28;20106;-44
2022/01/20 01:00:34;;;;;;;5.65;4.85;;;5.20;99.90;;;;;;5093830;28;20080;-44
2022/01/20 01:03:00;;;;;;;5.10;4.65;;;5.20;99.90;;;;;;5093931;28;20028;-47
2022/01/20 01:05:27;;;;;;;5.47;4.22;;;5.20;99.90;;;;;;5112066;28;20042;-48
2022/01/20 01:07:55;;;;;;;5.20;4.70;;;5.10;99.90;;;;;;5112217;28;20023;-48
2022/01/20 01:10:27;;;;;;;5.55;4.50;;;5.10;99.90;;;;;;5111681;28;20028;-49
2022/01/20 01:13:01;;;;;;;3.97;3.63;;;5.00;99.90;;;;;;5111818;28;20573;-46
2022/01/20 01:15:33;;;;;;;4.93;4.38;;;5.10;99.90;;;;;;5112057;28;20058;-48
2022/01/20 01:23:28;;;;;;;5.13;4.45;;;5.10;99.90;;;;;;5111886;28;20020;-45
2022/01/20 01:25:57;;;;;;;5.05;4.50;;;5.10;99.90;;;;;;5111792;28;20055;-47
2022/01/20 01:28:26;;;;;;;4.85;4.30;;;5.00;99.90;;;;;;5111906;28;20098;-47
2022/01/20 01:31:18;;;;;;;5.47;4.47;;;5.00;99.90;;;;;;5111255;28;20375;-46
2022/01/20 01:33:51;;;;;;;4.53;3.88;;;5.10;99.90;;;;;;5111359;28;20182;-49
2022/01/20 01:36:19;;;;;;;4.47;4.07;;;5.10;99.90;;;;;;5093461;28;20023;-46
2022/01/20 01:38:47;;;;;;;5.05;4.53;;;5.10;99.90;;;;;;5111506;28;20027;-47
2022/01/20 01:41:18;;;;;;;5.85;4.50;;;5.10;99.90;;;;;;5111237;28;20020;-45
2022/01/20 01:43:47;;;;;;;6.20;5.03;;;5.10;99.90;;;;;;5111625;28;20023;-48
2022/01/20 01:46:14;;;;;;;5.25;4.35;;;5.10;99.90;;;;;;5111552;28;20072;-44
2022/01/20 01:48:41;;;;;;;10.25;4.68;;;5.10;99.90;;;;;;5111835;28;20520;-45
2022/01/20 01:51:08;;;;;;;7.05;4.45;;;5.10;99.90;;;;;;5111128;28;20445;-48
2022/01/20 01:53:34;;;;;;;6.18;4.68;;;5.00;99.90;;;;;;5111511;28;20053;-49
2022/01/20 01:56:01;;;;;;;6.20;4.68;;;5.00;99.90;;;;;;5111402;28;20106;-48
2022/01/20 01:58:27;;;;;;;7.03;4.82;;;5.10;99.90;;;;;;5092903;28;20091;-48
2022/01/20 02:00:54;;;;;;;6.38;5.78;;;5.00;99.90;;;;;;5114584;28;20122;-47
2022/01/20 02:03:20;;;;;;;6.30;4.68;;;5.10;99.90;;;;;;5096823;28;20051;-49
2022/01/20 02:06:04;;;;;;;6.65;4.65;;;5.00;99.90;;;;;;5115371;28;20493;-47
2022/01/20 02:19:10;;;;;;;7.38;5.15;;;4.70;99.90;;;;;;5114784;28;20026;-43
2022/01/20 02:21:52;;;;;;;6.40;4.72;;;4.80;99.90;;;;;;5114842;28;20118;-45
2022/01/20 02:24:18;;;;;;;11.15;5.13;;;4.80;99.90;;;;;;5115071;28;20024;-46
2022/01/20 02:26:44;;;;;;;5.60;4.32;;;4.80;99.90;;;;;;5096808;28;20031;-44
2022/01/20 02:29:10;;;;;;;7.75;4.90;;;4.90;99.90;;;;;;5114509;28;20043;-45
2022/01/20 02:31:36;;;;;;;6.60;4.63;;;4.90;99.90;;;;;;5114614;28;20023;-49
2022/01/20 02:34:01;;;;;;;8.70;5.13;;;4.90;99.90;;;;;;5114664;28;20023;-45
2022/01/20 02:36:28;;;;;;;6.10;5.30;;;4.90;99.90;;;;;;5114682;28;20031;-46
2022/01/20 02:39:07;;;;;;;7.22;4.95;;;4.90;99.90;;;;;;5114738;28;20453;-45
2022/01/20 02:47:12;;;;;;;7.43;4.85;;;5.00;99.90;;;;;;5114484;28;20027;-45
2022/01/20 02:49:37;;;;;;;9.82;5.10;;;4.90;99.90;;;;;;5095840;28;20020;-45
2022/01/20 02:52:04;;;;;;;10.85;5.07;;;4.90;99.90;;;;;;5114254;28;20028;-45
2022/01/20 02:54:29;;;;;;;8.15;4.88;;;4.90;99.90;;;;;;5114219;28;20038;-44
2022/01/20 02:56:55;;;;;;;5.63;4.78;;;4.80;99.90;;;;;;5114508;28;20496;-46
2022/01/20 02:59:21;;;;;;;5.32;4.80;;;4.90;99.90;;;;;;5114068;28;20039;-45
2022/01/20 03:01:47;;;;;;;8.70;4.70;;;4.90;99.90;;;;;;5114075;28;20030;-47
2022/01/20 03:04:12;;;;;;;8.27;5.65;;;4.90;99.90;;;;;;5114128;28;20019;-48
2022/01/20 03:06:38;;;;;;;11.45;5.32;;;4.90;99.90;;;;;;5114322;28;20041;-45
2022/01/20 03:09:04;;;;;;;4.82;4.20;;;4.90;99.90;;;;;;5113961;28;20023;-43
2022/01/20 03:11:30;;;;;;;5.97;4.20;;;4.80;99.90;;;;;;5113168;28;20532;-45
2022/01/20 03:13:55;;;;;;;8.57;5.32;;;4.90;99.90;;;;;;5095600;28;20425;-45
2022/01/20 03:16:21;;;;;;;15.38;5.28;;;4.90;99.90;;;;;;5113841;28;20026;-46
2022/01/20 03:18:46;;;;;;;8.18;5.57;;;4.90;99.90;;;;;;5113926;28;20212;-43
2022/01/20 03:21:12;;;;;;;7.07;4.38;;;4.90;99.90;;;;;;5113468;28;20023;-44
2022/01/20 03:23:37;;;;;;;12.95;7.50;;;4.90;99.90;;;;;;5113742;28;20099;-46
2022/01/20 03:26:03;;;;;;;6.68;5.00;;;4.90;99.90;;;;;;5113788;28;20531;-44
2022/01/20 03:28:28;;;;;;;8.23;4.22;;;4.90;99.90;;;;;;5113702;28;20035;-46
2022/01/20 03:30:54;;;;;;;8.40;4.22;;;4.90;99.90;;;;;;5113351;28;20031;-45
2022/01/20 03:33:19;;;;;;;8.35;4.05;;;4.90;99.90;;;;;;5113609;28;20031;-45
2022/01/20 03:35:46;;;;;;;17.20;6.60;;;4.80;99.90;;;;;;5113605;28;20053;-45
2022/01/20 03:38:11;;;;;;;11.07;4.80;;;4.90;99.90;;;;;;5113340;28;20023;-46
2022/01/20 03:40:37;;;;;;;10.07;5.28;;;4.90;99.90;;;;;;5113092;28;20020;-43
2022/01/20 03:43:03;;;;;;;8.90;4.40;;;4.80;99.90;;;;;;5113236;28;20020;-44
2022/01/20 03:45:29;;;;;;;8.50;4.88;;;4.90;99.90;;;;;;5094878;28;20024;-46
2022/01/20 03:48:02;;;;;;;10.43;5.00;;;4.80;99.90;;;;;;5113243;28;20098;-44
2022/01/20 03:53:12;;;;;;;13.07;5.43;;;4.80;99.90;;;;;;5113066;28;20517;-43
2022/01/20 03:55:37;;;;;;;11.32;5.13;;;4.80;99.90;;;;;;5113133;28;20055;-45
2022/01/20 03:58:03;;;;;;;12.93;5.80;;;4.80;99.90;;;;;;5112954;28;20074;-47
2022/01/20 04:00:28;;;;;;;14.32;4.38;;;4.80;99.90;;;;;;5112965;28;20038;-45
2022/01/20 04:02:54;;;;;;;15.68;4.50;;;4.70;99.90;;;;;;5094894;28;20016;-44
2022/01/20 04:05:19;;;;;;;10.30;4.57;;;4.70;99.90;;;;;;5112946;28;20111;-45
2022/01/20 04:07:45;;;;;;;15.00;6.32;;;4.60;99.90;;;;;;5112907;28;20077;-44
2022/01/20 04:10:10;;;;;;;15.55;5.20;;;4.50;99.90;;;;;;5112609;28;20026;-44
2022/01/20 04:12:36;;;;;;;10.48;5.30;;;4.50;99.90;;;;;;5112992;28;20046;-45
2022/01/20 04:15:07;;;;;;;17.85;5.70;;;4.50;99.90;;;;;;5112727;28;20027;-45
2022/01/20 04:17:34;;;;;;;15.25;5.22;;;4.40;99.90;;;;;;5112540;28;20102;-45
2022/01/20 04:20:00;;;;;;;12.75;5.40;;;4.40;99.90;;;;;;5112415;28;20204;-49
2022/01/20 04:22:27;;;;;;;8.80;4.38;;;4.40;99.90;;;;;;5112295;28;20016;-44
2022/01/20 04:24:53;;;;;;;10.98;5.68;;;4.40;99.90;;;;;;5112494;28;20054;-45
2022/01/20 04:27:18;;;;;;;9.88;4.72;;;4.40;99.90;;;;;;5112763;28;20051;-44
2022/01/20 04:29:44;;;;;;;17.10;5.70;;;4.40;99.90;;;;;;5112167;28;20063;-45
2022/01/20 04:32:09;;;;;;;20.55;5.05;;;4.30;99.90;;;;;;5094214;28;20093;-43
2022/01/20 04:34:35;;;;;;;17.50;5.53;;;4.30;99.90;;;;;;5112685;28;20126;-45
2022/01/20 04:37:04;;;;;;;14.13;4.68;;;4.30;99.90;;;;;;5112395;28;20020;-46
2022/01/20 04:39:32;;;;;;;14.68;5.22;;;4.30;99.90;;;;;;5112277;28;20051;-45
2022/01/20 04:41:58;;;;;;;14.90;4.55;;;4.30;99.90;;;;;;5112316;28;20016;-45
2022/01/20 04:44:43;;;;;;;14.63;5.07;;;4.30;99.90;;;;;;5112372;28;20026;-45
2022/01/20 04:58:04;;;;;;;12.48;4.38;;;4.20;99.90;;;;;;5112050;28;20418;-44
2022/01/20 05:00:30;;;;;;;13.63;3.88;;;4.20;99.90;;;;;;5111666;28;20031;-43
2022/01/20 05:02:56;;;;;;;18.35;4.93;;;4.30;99.90;;;;;;5111901;28;20028;-44
2022/01/20 05:05:22;;;;;;;14.20;4.57;;;4.20;99.90;;;;;;5111861;28;20099;-42
2022/01/20 05:07:48;;;;;;;13.80;4.50;;;4.20;99.90;;;;;;5112148;28;20023;-45
2022/01/20 05:10:14;;;;;;;11.60;3.72;;;4.20;99.90;;;;;;5111765;28;20114;-45
2022/01/20 05:13:04;;;;;;;13.65;4.57;;;4.20;99.90;;;;;;5111795;28;20031;-43
2022/01/20 05:15:32;;;;;;;24.90;4.95;;;4.20;99.90;;;;;;5111870;28;20039;-44
2022/01/20 05:17:58;;;;;;;9.30;3.67;;;4.20;99.90;;;;;;5111761;28;20020;-46
2022/01/20 05:20:23;;;;;;;22.98;5.07;;;4.20;99.90;;;;;;5111328;28;20102;-44
2022/01/20 05:22:49;;;;;;;20.65;4.82;;;4.20;99.90;;;;;;5111737;28;20063;-45
2022/01/20 05:25:14;;;;;;;16.77;4.88;;;4.20;99.90;;;;;;5093515;28;20069;-45
2022/01/20 05:27:40;;;;;;;19.25;5.28;;;4.20;99.90;;;;;;5111768;28;20032;-45
2022/01/20 05:30:06;;;;;;;19.98;5.28;;;4.20;99.90;;;;;;5111386;28;20034;-45
2022/01/20 05:32:32;;;;;;;22.08;5.40;;;4.20;99.90;;;;;;5111453;28;20110;-44
2022/01/20 05:34:57;;;;;;;13.57;4.05;;;4.20;99.90;;;;;;5095427;28;20119;-45
2022/01/20 05:37:23;;;;;;;21.95;3.60;;;4.30;99.90;;;;;;5115774;28;20321;-45
2022/01/20 05:39:48;;;;;;;16.25;3.60;;;4.30;99.90;;;;;;5115457;28;20028;-45
2022/01/20 05:42:14;;;;;;;18.77;4.18;;;4.30;99.90;;;;;;5115587;28;20016;-44
2022/01/20 05:44:39;;;;;;;16.23;5.32;;;4.40;99.90;;;;;;5115743;28;20046;-45
2022/01/20 05:47:10;;;;;;;13.40;4.63;;;4.50;99.90;;;;;;5116243;28;20402;-44
2022/01/20 05:49:36;;;;;;;13.35;3.42;;;4.50;99.90;;;;;;5115304;28;20019;-44
2022/01/20 05:52:02;;;;;;;13.93;3.80;;;4.60;99.90;;;;;;5097458;28;20027;-45
2022/01/20 05:54:28;;;;;;;22.70;3.92;;;4.50;99.90;;;;;;5115200;28;20473;-45
2022/01/20 05:56:53;;;;;;;15.23;3.25;;;4.60;99.90;;;;;;5115482;28;20024;-46
2022/01/20 05:59:19;;;;;;;15.13;3.60;;;4.50;99.90;;;;;;5115027;28;20028;-45
2022/01/20 06:01:52;;;;;;;18.50;4.35;;;4.50;99.90;;;;;;5115302;28;20023;-45
2022/01/20 06:04:17;;;;;;;20.67;4.47;;;4.40;99.90;;;;;;5115345;28;20012;-46
2022/01/20 06:06:44;;;;;;;16.27;3.88;;;4.40;99.90;;;;;;5115063;28;20106;-45
2022/01/20 06:09:10;;;;;;;19.83;4.50;;;4.30;99.90;;;;;;5114863;28;20068;-46
2022/01/20 06:11:35;;;;;;;14.70;3.72;;;4.30;99.90;;;;;;5096806;28;20023;-48
2022/01/20 06:14:01;;;;;;;23.00;3.13;;;4.30;99.90;;;;;;5136021;22;20410;-46
2022/01/20 06:16:27;;;;;;;12.32;3.50;;;4.20;99.90;;;;;;5116347;28;20023;-43
2022/01/20 06:18:53;;;;;;;27.42;4.88;;;4.10;99.90;;;;;;5097161;28;20085;-45
2022/01/20 06:21:19;;;;;;;21.05;3.40;;;4.10;99.90;;;;;;5115572;28;20364;-50
2022/01/20 06:23:44;;;;;;;9.35;3.63;;;3.90;99.90;;;;;;5097533;28;20024;-45
2022/01/20 06:26:10;;;;;;;13.30;4.05;;;3.80;99.90;;;;;;5116085;28;20016;-44
2022/01/20 06:28:37;;;;;;;20.70;4.40;;;3.80;99.90;;;;;;5115854;28;20030;-42
2022/01/20 06:31:04;;;;;;;14.18;3.67;;;3.70;99.90;;;;;;5115707;28;20074;-40
2022/01/20 06:33:29;;;;;;;16.52;3.30;;;3.80;99.90;;;;;;5115614;28;20402;-48
2022/01/20 06:35:55;;;;;;;19.80;4.35;;;3.80;99.90;;;;;;5116111;28;20028;-46
2022/01/20 06:38:21;;;;;;;12.70;3.60;;;3.70;99.90;;;;;;5115767;28;20509;-46
2022/01/20 06:40:47;;;;;;;14.23;4.10;;;3.70;99.90;;;;;;5115467;28;20038;-42
2022/01/20 06:43:13;;;;;;;18.65;4.15;;;3.80;99.90;;;;;;5097930;28;20016;-47
2022/01/20 06:45:38;;;;;;;11.63;3.83;;;3.90;99.90;;;;;;5115109;28;20386;-45
2022/01/20 06:48:04;;;;;;;10.35;3.60;;;3.90;99.90;;;;;;5115252;28;20397;-50
2022/01/20 06:50:30;;;;;;;15.25;3.95;;;3.90;99.90;;;;;;5115173;28;20055;-41
2022/01/20 06:52:55;;;;;;;10.23;4.05;;;3.80;99.90;;;;;;5115013;28;20084;-45
2022/01/20 06:55:21;;;;;;;12.25;3.08;;;3.90;99.90;;;;;;5114732;28;20533;-45
2022/01/20 06:57:47;;;;;;;11.13;3.70;;;3.90;99.90;;;;;;5114371;28;20530;-47
2022/01/20 07:00:17;;;;;;;17.70;5.07;;;3.90;99.90;;;;;;5114062;28;20027;-45
2022/01/20 07:02:43;;;;;;;16.95;4.00;;;3.90;99.90;;;;;;5114511;28;20015;-48
2022/01/20 07:05:10;;;;;;;19.35;5.13;;;3.90;99.90;;;;;;5114364;28;20507;-47
2022/01/20 07:07:36;;;;;;;14.52;3.75;;;3.80;99.90;;;;;;5114376;28;20031;-43
2022/01/20 07:10:02;;;;;;;14.10;3.53;;;3.80;99.90;;;;;;5113969;28;20019;-48
2022/01/20 07:12:28;;;;;;;16.38;4.05;;;3.80;99.90;;;;;;5113906;28;20043;-41
2022/01/20 07:14:53;;;;;;;17.73;3.17;;;3.80;99.90;;;;;;5114090;28;20032;-50
2022/01/20 07:17:19;;;;;;;14.88;3.53;;;3.80;99.90;;;;;;5114156;28;20050;-46
2022/01/20 07:19:44;;;;;;;14.27;3.30;;;3.70;99.90;;;;;;5114093;28;20022;-45
2022/01/20 07:22:10;;;;;;;15.02;2.97;;;3.80;99.90;;;;;;5113858;28;20024;-47
2022/01/20 07:24:35;;;;;;;15.75;3.72;;;3.80;99.90;;;;;;5114032;28;20026;-43
2022/01/20 07:27:01;;;;;;;18.15;3.83;;;3.80;99.90;;;;;;5113778;28;20032;-45
2022/01/20 07:29:27;;;;;;;15.45;5.05;;;3.80;99.90;;;;;;5113417;28;20023;-47
2022/01/20 07:31:53;;;;;;;15.90;3.75;;;3.80;99.90;;;;;;5113876;28;20032;-47
2022/01/20 07:34:19;;;;;;;14.70;3.55;;;3.80;99.90;;;;;;5113668;28;20403;-46
2022/01/20 07:36:44;;;;;;;23.50;5.30;;;3.70;99.90;;;;;;5113665;28;20032;-49
2022/01/20 07:39:10;;;;;;;4.47;2.45;;;3.70;99.90;;;;;;5113377;28;20392;-41
2022/01/20 07:41:36;;;;;;;8.75;2.25;;;3.80;99.90;;;;;;5113353;28;20016;-41
2022/01/20 07:44:01;;;;;;;10.15;2.58;;;3.70;99.90;;;;;;5095322;28;20387;-45
2022/01/20 07:46:27;;;;;;;8.77;3.30;;;3.90;99.90;;;;;;5095248;28;20076;-43
2022/01/20 07:48:53;;;;;;;7.82;2.13;;;3.90;99.90;;;;;;5113389;28;20028;-45
2022/01/20 07:51:19;;;;;;;6.20;1.70;;;4.10;99.90;;;;;;5113004;28;20027;-46
2022/01/20 07:53:44;;;;;;;9.25;1.63;;;4.10;99.90;;;;;;5113400;28;20098;-46
2022/01/20 07:56:10;;;;;;;9.02;1.92;;;4.20;99.90;;;;;;5113810;28;20070;-47
2022/01/20 07:58:37;;;;;;;11.23;2.03;;;4.20;99.90;;;;;;5113357;28;20486;-50
2022/01/20 08:01:04;;;;;;;8.15;2.60;;;4.30;99.90;;;;;;5112949;28;20019;-42
2022/01/20 08:03:30;;;;;;;12.15;2.15;;;4.30;99.90;;;;;;5113366;28;20118;-51
2022/01/20 08:05:56;;;;;;;9.48;2.40;;;4.40;99.90;;;;;;5113561;28;20051;-47
2022/01/20 08:08:21;;;;;;;11.05;2.17;;;4.30;99.90;;;;;;5113330;28;20032;-44
2022/01/20 08:10:47;;;;;;;10.48;2.35;;;4.30;99.90;;;;;;5113101;28;20063;-47
2022/01/20 08:13:13;;;;;;;12.80;2.90;;;4.20;99.90;;;;;;5112942;28;20088;-42
2022/01/20 08:15:38;;;;;;;10.57;2.67;;;4.20;99.90;;;;;;5113079;28;20027;-52
2022/01/20 08:18:04;;;;;;;10.40;2.25;;;4.20;99.90;;;;;;5112806;28;20024;-49
2022/01/20 08:20:30;;;;;;;8.02;2.78;;;4.20;99.90;;;;;;5112733;28;20026;-43
2022/01/20 08:22:55;;;;;;;10.15;3.45;;;4.20;99.90;;;;;;5094900;28;20414;-46
2022/01/20 08:25:23;;;;;;;8.52;3.40;;;4.30;99.90;;;;;;5113555;28;20028;-54
2022/01/20 08:27:49;;;;;;;9.23;2.75;;;4.30;99.90;;;;;;5101303;28;20031;-49
2022/01/20 08:30:17;;;;;;;9.10;2.45;;;4.30;99.90;;;;;;5092282;28;20020;-46
2022/01/20 08:32:44;;;;;;;10.88;2.58;;;4.40;99.90;;;;;;5095890;28;20023;-43
2022/01/20 08:35:10;;;;;;;8.90;2.33;;;4.40;99.90;;;;;;5112851;28;20031;-46
2022/01/20 08:37:45;;;;;;;11.70;2.17;;;4.40;99.90;;;;;;5113425;28;20107;-46
2022/01/20 08:40:15;;;;;;;11.93;2.97;;;4.50;99.90;;;;;;5094441;28;20024;-46
2022/01/20 08:42:42;;;;;;;6.65;2.22;;;4.60;99.90;;;;;;5113223;28;20020;-42
2022/01/20 08:45:10;;;;;;;9.68;1.67;;;4.60;99.90;;;;;;5112789;28;20509;-46
2022/01/20 08:47:35;;;;;;;5.53;2.13;;;4.60;99.90;;;;;;5113360;28;20039;-45
2022/01/20 08:50:02;;;;;;;8.57;1.65;;;4.70;99.90;;;;;;5093166;28;20032;-42
2022/01/20 08:52:29;;;;;;;5.70;1.67;;;4.80;99.90;;;;;;5110597;28;20031;-49
2022/01/20 08:54:57;;;;;;;3.13;1.92;;;4.90;99.90;;;;;;5105441;28;20578;-47
2022/01/20 08:57:26;;;;;;;10.27;2.67;;;5.00;99.90;;;;;;5093626;28;20496;-46
2022/01/20 08:59:53;;;;;;;6.55;1.60;;;5.10;99.90;;;;;;5107333;28;20020;-42
2022/01/20 09:02:19;;;;;;;8.13;1.77;;;5.10;99.90;;;;;;5111954;28;20023;-38
2022/01/20 09:04:44;;;;;;;3.92;2.30;;;5.10;99.90;;;;;;5113123;28;20501;-44
2022/01/20 09:07:10;;;;;;;6.90;1.95;;;5.10;99.90;;;;;;5113082;28;20023;-47
2022/01/20 09:09:41;;;;;;;2.72;2.05;;;5.00;99.90;;;;;;5112191;28;20407;-46
2022/01/20 09:17:30;;;;;;;6.00;2.22;;;5.00;99.90;;;;;;5106232;28;20081;-43
2022/01/20 09:19:57;;;;;;;7.22;2.83;;;5.50;99.90;;;;;;5098611;28;20496;-41
2022/01/20 09:22:24;;;;;;;4.32;1.48;;;6.30;99.90;;;;;;5092269;28;20051;-44
2022/01/20 09:24:50;;;;;;;8.27;2.35;;;6.90;99.90;;;;;;5112114;28;20052;-54
2022/01/20 09:27:15;;;;;;;6.03;2.10;;;7.60;99.90;;;;;;5112754;28;20031;-43
2022/01/20 09:29:41;;;;;;;8.38;2.33;;;8.30;99.90;;;;;;5112099;28;20036;-40
2022/01/20 09:32:10;;;;;;;5.35;1.63;;;8.80;99.90;;;;;;5111709;28;20072;-44
2022/01/20 09:34:36;;;;;;;6.18;1.90;;;8.90;99.90;;;;;;5094457;28;20023;-47
2022/01/20 09:37:01;;;;;;;4.88;1.73;;;8.60;99.90;;;;;;5112528;28;20441;-46
2022/01/20 09:39:27;;;;;;;6.60;2.20;;;8.10;99.90;;;;;;5111683;28;20024;-42
2022/01/20 09:41:53;;;;;;;4.60;1.70;;;7.70;99.90;;;;;;5093809;28;20134;-44
2022/01/20 09:44:19;;;;;;;12.60;2.05;;;7.20;99.90;;;;;;5111894;28;20030;-49
2022/01/20 09:46:45;;;;;;;4.78;2.03;;;6.80;99.90;;;;;;5111735;28;20431;-46
2022/01/20 09:49:11;;;;;;;12.98;2.65;;;6.50;99.90;;;;;;5111872;28;20035;-50
2022/01/20 09:51:38;;;;;;;11.70;3.22;;;6.30;99.90;;;;;;5111823;28;20384;-50
2022/01/20 09:54:05;;;;;;;9.82;3.05;;;6.10;99.90;;;;;;5112131;28;20044;-46
2022/01/20 09:56:31;;;;;;;8.35;3.60;;;5.90;99.90;;;;;;5112183;28;20098;-47
2022/01/20 09:58:57;;;;;;;9.45;3.40;;;5.80;99.90;;;;;;5111898;28;20056;-47
2022/01/20 10:01:43;;;;;;;19.02;3.83;;;5.70;99.90;;;;;;5111643;28;20059;-41
2022/01/20 10:04:29;;;;;;;12.35;3.63;;;6.00;99.90;;;;;;5111582;28;20024;-45
2022/01/20 10:06:59;;;;;;;8.63;2.60;;;6.90;99.90;;;;;;5111646;28;20019;-48
2022/01/20 10:09:41;;;;;;;10.93;2.90;;;7.80;99.90;;;;;;5111525;28;20069;-46
2022/01/20 10:12:09;;;;;;;7.13;2.22;;;9.00;99.90;;;;;;5111703;28;20376;-51
2022/01/20 10:14:39;;;;;;;8.57;2.25;;;10.10;99.90;;;;;;5111749;28;20079;-52
2022/01/20 10:17:21;;;;;;;6.30;1.85;;;11.00;97.50;;;;;;5111310;28;20027;-48
2022/01/20 10:19:55;;;;;;;5.57;2.50;;;11.70;95.80;;;;;;5111236;28;20024;-48
2022/01/20 10:22:23;;;;;;;7.72;2.45;;;12.20;95.30;;;;;;5113746;28;20016;-46
2022/01/20 10:24:59;;;;;;;6.45;2.13;;;11.90;94.40;;;;;;5115199;28;20429;-45
2022/01/20 10:27:24;;;;;;;5.20;1.95;;;11.90;95.30;;;;;;5115095;28;20022;-42
2022/01/20 10:30:08;;;;;;;5.22;1.92;;;11.60;93.80;;;;;;5114608;28;20027;-50
2022/01/20 10:32:48;;;;;;;9.15;1.92;;;10.90;92.10;;;;;;5115296;28;20027;-46
2022/01/20 10:35:17;;;;;;;5.85;1.63;;;10.60;92.50;;;;;;5115423;28;20110;-46
2022/01/20 10:37:58;;;;;;;7.35;1.58;;;10.10;92.70;;;;;;5115226;28;20024;-46
2022/01/20 10:40:24;;;;;;;4.45;1.38;;;10.00;94.50;;;;;;5114979;28;20030;-48
2022/01/20 10:42:50;;;;;;;11.30;2.00;;;9.60;95.20;;;;;;5114659;28;20015;-46
2022/01/20 10:45:27;;;;;;;7.65;2.30;;;9.70;95.60;;;;;;5114839;28;20024;-47
2022/01/20 10:47:55;;;;;;;9.68;2.33;;;9.40;95.70;;;;;;5115066;28;20038;-46
2022/01/20 10:50:24;;;;;;;5.13;1.83;;;9.20;96.00;;;;;;5096391;28;20036;-48
2022/01/20 10:52:52;;;;;;;5.78;2.42;;;9.20;96.40;;;;;;5096818;28;20032;-46
2022/01/20 10:55:22;;;;;;;8.93;2.40;;;9.60;96.30;;;;;;5114493;28;20102;-48
2022/01/20 10:57:48;;;;;;;4.57;1.45;;;9.90;95.50;;;;;;5114206;28;20475;-46
2022/01/20 11:00:19;;;;;;;12.93;2.08;;;9.70;93.90;;;;;;5113990;28;20490;-46
2022/01/20 11:02:49;;;;;;;12.52;2.53;;;9.20;94.00;;;;;;5114447;28;20077;-47
2022/01/20 11:05:16;;;;;;;9.77;1.90;;;8.80;95.10;;;;;;5114282;28;20099;-48
2022/01/20 11:07:43;;;;;;;8.20;2.17;;;8.50;96.50;;;;;;5114418;28;20022;-50
2022/01/20 11:10:10;;;;;;;12.93;2.25;;;8.10;96.90;;;;;;5114285;28;20027;-45
2022/01/20 11:12:36;;;;;;;10.50;1.90;;;7.80;98.20;;;;;;5114235;28;20118;-47
2022/01/20 11:15:06;;;;;;;6.45;2.15;;;7.40;98.30;;;;;;5114424;28;20070;-45
2022/01/20 11:17:34;;;;;;;12.95;3.08;;;7.10;98.60;;;;;;5114274;28;20048;-49
2022/01/20 11:20:24;;;;;;;9.52;2.10;;;7.00;99.30;;;;;;5113837;28;20027;-49
2022/01/20 11:22:54;;;;;;;11.73;2.20;;;6.90;99.90;;;;;;5113939;28;20481;-47
2022/01/20 11:25:22;;;;;;;18.38;3.42;;;6.80;99.90;;;;;;5113881;28;20475;-43
2022/01/20 11:27:51;;;;;;;13.48;2.63;;;6.70;99.90;;;;;;5109451;28;20077;-46
2022/01/20 11:30:26;;;;;;;16.40;2.17;;;6.60;99.90;;;;;;5107783;28;20400;-50
2022/01/20 11:33:00;;;;;;;9.65;2.53;;;6.60;99.90;;;;;;5107246;28;20084;-46
2022/01/20 11:35:43;;;;;;;7.70;2.10;;;6.60;99.90;;;;;;5095330;28;20491;-41
2022/01/20 11:38:11;;;;;;;9.07;2.40;;;6.60;99.90;;;;;;5098841;28;20399;-42
2022/01/20 11:41:01;;;;;;;10.13;2.15;;;6.50;99.90;;;;;;5104098;28;20097;-49
2022/01/20 11:43:41;;;;;;;8.98;2.30;;;6.50;99.90;;;;;;5093925;28;20016;-48
2022/01/20 11:46:14;;;;;;;4.85;1.90;;;6.40;99.90;;;;;;5093748;28;20103;-45
2022/01/20 11:48:58;;;;;;;10.68;2.55;;;6.40;99.90;;;;;;5093728;28;20020;-47
2022/01/20 11:51:26;;;;;;;10.43;2.45;;;6.30;99.90;;;;;;5093307;28;20568;-46
2022/01/20 11:54:04;;;;;;;11.93;2.88;;;6.30;99.90;;;;;;5099992;28;20103;-47
2022/01/20 11:56:34;;;;;;;7.93;1.67;;;6.30;99.90;;;;;;5113109;28;20028;-44
2022/01/20 11:59:00;;;;;;;12.15;2.95;;;6.20;99.90;;;;;;5105386;28;20020;-52
2022/01/20 12:01:27;;;;;;;10.75;2.28;;;6.30;99.90;;;;;;5102781;28;20110;-55
2022/01/20 12:03:54;;;;;;;13.30;3.10;;;6.30;99.90;;;;;;5107852;28;20016;-47
2022/01/20 12:06:24;;;;;;;11.10;3.55;;;6.40;99.90;;;;;;5076617;28;20396;-48
2022/01/20 12:09:03;;;;;;;9.50;3.58;;;6.40;99.90;;;;;;5105767;28;20020;-47
2022/01/20 12:11:45;;;;;;;12.73;2.88;;;6.40;99.90;;;;;;5092407;28;20024;-48
2022/01/20 12:14:11;;;;;;;11.48;2.83;;;6.30;99.90;;;;;;5116980;22;20040;-52
2022/01/20 12:16:40;;;;;;;6.07;3.40;;;6.20;99.90;;;;;;5091764;28;20020;-48
2022/01/20 12:19:09;;;;;;;11.43;4.53;;;6.20;99.90;;;;;;5090728;28;20111;-48
2022/01/20 12:21:36;;;;;;;11.23;3.92;;;6.00;99.90;;;;;;5091663;28;20081;-48
2022/01/20 12:24:02;;;;;;;8.80;4.05;;;6.00;99.90;;;;;;5059880;28;20477;-49
2022/01/20 12:26:33;;;;;;;11.52;2.78;;;5.90;99.90;;;;;;5051965;28;20025;-46
2022/01/20 12:29:00;;;;;;;10.40;1.88;;;6.00;99.90;;;;;;5051717;28;20060;-44
2022/01/20 12:31:26;;;;;;;7.43;2.38;;;5.90;99.90;;;;;;5051419;28;20489;-44
2022/01/20 12:33:53;;;;;;;6.53;3.03;;;5.90;99.90;;;;;;5053113;28;20033;-44
2022/01/20 12:36:19;;;;;;;7.72;3.05;;;6.00;99.90;;;;;;5053442;28;20031;-47
2022/01/20 12:38:46;;;;;;;19.00;3.53;;;6.00;99.90;;;;;;5071575;28;20103;-41
2022/01/20 12:41:17;;;;;;;9.05;2.55;;;6.20;99.90;;;;;;5071331;28;20032;-44
2022/01/20 12:43:51;;;;;;;8.70;2.60;;;6.10;99.90;;;;;;5070902;28;20080;-43
2022/01/20 12:46:24;;;;;;;8.10;2.28;;;6.20;99.90;;;;;;5071132;28;20020;-44
2022/01/20 12:48:50;;;;;;;7.78;2.33;;;6.30;99.90;;;;;;5071607;28;20020;-46
2022/01/20 12:51:16;;;;;;;12.23;2.35;;;6.20;99.90;;;;;;5070900;28;20032;-47
2022/01/20 12:53:52;;;;;;;6.47;2.25;;;6.10;99.90;;;;;;5071197;28;20050;-44
2022/01/20 12:56:18;;;;;;;7.50;2.75;;;5.90;99.90;;;;;;5071516;28;20035;-47
2022/01/20 12:58:52;;;;;;;6.90;2.03;;;5.80;99.90;;;;;;5070764;28;20021;-44
2022/01/20 13:01:18;;;;;;;4.20;2.00;;;5.80;99.90;;;;;;5071364;28;20020;-43
2022/01/20 13:03:44;;;;;;;10.82;3.22;;;5.80;99.90;;;;;;5069859;28;20406;-48
2022/01/20 13:06:20;;;;;;;8.52;2.88;;;5.60;99.90;;;;;;5070113;28;20051;-52
2022/01/20 13:09:00;;;;;;;15.52;8.52;;;5.60;99.90;;;;;;5071337;28;20031;-48
2022/01/20 13:11:32;;;;;;;6.68;3.80;;;5.10;99.90;;;;;;5050988;28;20074;-48
2022/01/20 13:13:58;;;;;;;2.78;1.40;;;4.80;99.90;;;;;;5057999;28;20035;-46
2022/01/20 13:16:25;;;;;;;6.10;1.13;;;4.70;99.90;;;;;;5070707;28;20099;-46
2022/01/20 13:18:58;;;;;;;11.35;3.85;;;4.60;99.90;;;;;;5070980;28;20056;-49
2022/01/20 13:21:41;;;;;;;6.13;1.90;;;4.60;99.90;;;;;;5050107;28;20511;-48
2022/01/20 13:24:09;;;;;;;2.15;1.70;;;4.50;99.90;;;;;;5069205;28;20078;-49
2022/01/20 13:26:53;;;;;;;3.83;1.73;;;4.60;99.90;;;;;;5067780;28;20017;-45
2022/01/20 13:29:20;;;;;;;14.50;1.98;;;4.60;99.90;;;;;;5069765;28;20434;-48
2022/01/20 13:31:49;;;;;;;11.27;2.90;;;4.70;99.90;;;;;;5066842;28;20048;-47
2022/01/20 13:34:20;;;;;;;8.75;2.25;;;4.60;99.90;;;;;;5070029;28;20086;-49
2022/01/20 13:36:51;;;;;;;5.32;1.48;;;4.70;99.90;;;;;;5071188;28;20021;-47
2022/01/20 13:39:37;;;;;;;3.85;1.70;;;4.70;99.90;;;;;;5070831;28;20032;-45
2022/01/20 13:42:09;;;;;;;11.25;2.28;;;4.80;99.90;;;;;;5053042;28;20119;-47
2022/01/20 13:47:18;;;;;;;6.30;1.75;;;4.60;99.90;;;;;;5069240;28;20032;-50
2022/01/20 13:49:53;;;;;;;2.85;1.25;;;4.50;99.90;;;;;;5069240;28;20025;-48
2022/01/20 13:52:20;;;;;;;4.10;1.23;;;4.40;99.90;;;;;;5050136;28;20043;-49
2022/01/20 13:54:47;;;;;;;4.93;2.78;;;4.40;99.90;;;;;;5048158;28;20116;-48
2022/01/20 13:57:13;;;;;;;6.15;1.80;;;4.40;99.90;;;;;;5073604;28;20036;-47
2022/01/20 13:59:56;;;;;;;10.23;1.95;;;4.50;99.90;;;;;;5072800;28;20028;-50
2022/01/20 14:02:25;;;;;;;5.97;1.23;;;4.60;99.90;;;;;;5056265;28;20025;-46
2022/01/20 14:04:52;;;;;;;7.47;1.35;;;4.60;99.90;;;;;;5073519;28;20503;-55